createdAt,value
2023-02-01T00:02:58.347Z,98676.22
2023-02-01T00:08:00.857Z,98676.94
2023-02-01T00:13:03.313Z,98663.50
2023-02-01T00:18:06.169Z,98658.09
2023-02-01T00:23:10.703Z,98655.81
2023-02-01T00:28:13.949Z,98658.22
2023-02-01T00:33:16.452Z,98651.69
2023-02-01T00:38:20.049Z,98653.59
2023-02-01T00:43:22.656Z,98651.34
2023-02-01T00:48:25.885Z,98655.97
2023-02-01T00:53:28.427Z,98658.31
2023-02-01T00:58:31.108Z,98653.03
2023-02-01T01:03:35.705Z,98659.22
2023-02-01T01:08:38.978Z,98649.25
2023-02-01T01:13:41.960Z,98641.59
2023-02-01T01:18:45.306Z,98635.06
2023-02-01T01:23:48.866Z,98631.97
2023-02-01T01:28:52.232Z,98632.75
2023-02-01T01:33:56.987Z,98642.41
2023-02-01T01:38:59.639Z,98640.16
2023-02-01T01:44:03.513Z,98629.41
2023-02-01T01:49:15.236Z,98627.09
2023-02-01T01:54:34.320Z,98628.16
2023-02-01T01:59:39.536Z,98616.25
2023-02-01T02:04:42.139Z,98607.84
2023-02-01T02:09:54.660Z,98604.41
2023-02-01T02:15:02.450Z,98611.69
2023-02-01T02:20:23.480Z,98611.69
2023-02-01T02:25:50.369Z,98609.44
2023-02-01T02:31:17.181Z,98598.66
2023-02-01T02:36:35.916Z,98597.13
2023-02-01T02:42:06.220Z,98597.94
2023-02-01T02:47:27.334Z,98582.56
2023-02-01T02:52:49.570Z,98584.88
2023-02-01T02:58:11.454Z,98584.88
2023-02-01T03:03:32.586Z,98579.38
2023-02-01T03:08:35.332Z,98579.31
2023-02-01T03:13:58.538Z,98581.59
2023-02-01T03:19:07.027Z,98577.38
2023-02-01T03:24:18.667Z,98575.50
2023-02-01T03:29:30.977Z,98561.66
2023-02-01T03:34:33.864Z,98538.47
2023-02-01T03:40:12.634Z,98523.13
2023-02-01T03:45:28.911Z,98519.66
2023-02-01T03:50:37.367Z,98530.84
2023-02-01T03:55:44.032Z,98530.84
2023-02-01T04:00:53.116Z,98527.81
2023-02-01T04:05:56.695Z,98521.31
2023-02-01T04:11:02.755Z,98535.56
2023-02-01T04:16:05.776Z,98537.91
2023-02-01T04:21:08.440Z,98533.34
2023-02-01T04:26:11.002Z,98555.09
2023-02-01T04:31:13.515Z,98550.72
2023-02-01T04:36:15.975Z,98536.28
2023-02-01T04:41:23.815Z,98528.66
2023-02-01T04:46:26.261Z,98545.16
2023-02-01T04:51:28.668Z,98552.59
2023-02-01T04:56:31.209Z,98538.84
2023-02-01T05:01:33.960Z,98510.84
2023-02-01T05:06:36.564Z,98518.16
2023-02-01T05:11:58.063Z,98527.38
2023-02-01T05:17:00.591Z,98538.22
2023-02-01T05:22:03.273Z,98546.72
2023-02-01T05:27:05.964Z,98533.66
2023-02-01T05:32:21.701Z,98534.47
2023-02-01T05:37:24.865Z,98542.22
2023-02-01T05:42:27.276Z,98545.56
2023-02-01T05:47:29.732Z,98548.19
2023-02-01T05:52:32.391Z,98551.25
2023-02-01T05:57:35.264Z,98551.47
2023-02-01T06:02:37.903Z,98537.03
2023-02-01T06:07:40.431Z,98537.75
2023-02-01T06:12:43.144Z,98527.00
2023-02-01T06:17:48.612Z,98522.75
2023-02-01T06:22:51.473Z,98516.22
2023-02-01T06:27:54.122Z,98517.84
2023-02-01T06:32:56.531Z,98526.44
2023-02-01T06:37:59.240Z,98532.75
2023-02-01T06:43:01.723Z,98538.22
2023-02-01T06:48:04.244Z,98541.06
2023-02-01T06:53:06.775Z,98540.63
2023-02-01T06:58:09.185Z,98535.66
2023-02-01T07:03:11.551Z,98546.03
2023-02-01T07:08:13.961Z,98554.09
2023-02-01T07:13:21.989Z,98573.13
2023-02-01T07:18:24.669Z,98581.34
2023-02-01T07:23:27.825Z,98586.84
2023-02-01T07:28:32.521Z,98592.63
2023-02-01T07:33:35.480Z,98593.50
2023-02-01T07:38:38.509Z,98607.06
2023-02-01T07:43:41.054Z,98600.00
2023-02-01T07:48:43.488Z,98600.38
2023-02-01T07:53:46.310Z,98598.13
2023-02-01T07:58:53.740Z,98583.13
2023-02-01T08:04:01.345Z,98584.25
2023-02-01T08:09:05.848Z,98594.31
2023-02-01T08:14:08.548Z,98593.56
2023-02-01T08:19:11.013Z,98578.53
2023-02-01T08:24:13.494Z,98568.53
2023-02-01T08:29:16.019Z,98578.19
2023-02-01T08:34:18.858Z,98571.31
2023-02-01T08:39:21.414Z,98572.28
2023-02-01T08:44:23.878Z,98600.22
2023-02-01T08:49:26.315Z,98598.78
2023-02-01T08:54:28.943Z,98606.47
2023-02-01T08:59:31.467Z,98609.16
2023-02-01T09:04:33.944Z,98605.72
2023-02-01T09:09:37.345Z,98614.22
2023-02-01T09:14:39.947Z,98614.66
2023-02-01T09:19:43.209Z,98635.88
2023-02-01T09:24:45.932Z,98634.22
2023-02-01T09:29:53.441Z,98634.22
2023-02-01T09:34:56.017Z,98649.69
2023-02-01T09:39:58.441Z,98641.75
2023-02-01T09:45:27.015Z,98654.56
2023-02-01T09:50:38.797Z,98657.69
2023-02-01T09:55:48.351Z,98664.59
2023-02-01T10:00:57.571Z,98659.91
2023-02-01T10:06:21.701Z,98660.75
2023-02-01T10:11:56.968Z,98668.44
2023-02-01T10:17:17.605Z,98658.31
2023-02-01T10:23:00.041Z,98673.16
2023-02-01T10:28:01.449Z,98672.06
2023-02-01T10:33:47.323Z,98684.03
2023-02-01T10:38:50.712Z,98681.34
2023-02-01T10:43:59.947Z,98680.97
2023-02-01T10:49:07.624Z,98687.94
2023-02-01T10:54:21.558Z,98687.13
2023-02-01T10:59:28.698Z,98674.78
2023-02-01T11:04:39.095Z,98665.84
2023-02-01T11:09:42.744Z,98671.66
2023-02-01T11:14:44.852Z,98657.75
2023-02-01T11:19:56.963Z,98658.53
2023-02-01T11:25:08.768Z,98663.53
2023-02-01T11:30:36.098Z,98656.19
2023-02-01T11:35:41.264Z,98641.53
2023-02-01T11:40:43.498Z,98636.50
2023-02-01T11:46:01.481Z,98615.19
2023-02-01T11:51:24.410Z,98602.84
2023-02-01T11:56:44.929Z,98593.34
2023-02-01T12:01:56.764Z,98592.31
2023-02-01T12:07:13.860Z,98588.94
2023-02-01T12:12:41.958Z,98581.22
2023-02-01T12:18:15.489Z,98582.38
2023-02-01T12:23:37.216Z,98582.00
2023-02-01T12:29:04.084Z,98598.25
2023-02-01T12:34:09.824Z,98602.88
2023-02-01T12:39:26.218Z,98596.63
2023-02-01T12:44:44.900Z,98593.94
2023-02-01T12:50:02.377Z,98588.94
2023-02-01T12:55:20.861Z,98598.22
2023-02-01T13:00:40.973Z,98601.28
2023-02-01T13:05:57.810Z,98598.19
2023-02-01T13:11:19.307Z,98589.72
2023-02-01T13:16:35.289Z,98590.50
2023-02-01T13:21:44.522Z,98573.91
2023-02-01T13:26:48.151Z,98573.88
2023-02-01T13:32:03.881Z,98569.63
2023-02-01T13:37:33.621Z,98560.31
2023-02-01T13:42:55.855Z,98569.22
2023-02-01T13:48:02.463Z,98561.13
2023-02-01T13:53:12.533Z,98572.72
2023-02-01T13:58:39.081Z,98561.81
2023-02-01T14:03:47.543Z,98555.22
2023-02-01T14:09:15.060Z,98535.56
2023-02-01T14:14:17.954Z,98534.06
2023-02-01T14:19:27.824Z,98539.47
2023-02-01T14:24:35.899Z,98539.44
2023-02-01T14:29:44.025Z,98533.63
2023-02-01T14:34:49.320Z,98538.69
2023-02-01T14:39:57.138Z,98547.94
2023-02-01T14:45:24.829Z,98563.31
2023-02-01T14:50:33.819Z,98565.69
2023-02-01T14:55:50.532Z,98573.44
2023-02-01T15:00:56.908Z,98578.03
2023-02-01T15:06:01.947Z,98575.00
2023-02-01T15:11:17.176Z,98577.31
2023-02-01T15:16:19.673Z,98574.97
2023-02-01T15:21:28.931Z,98581.09
2023-02-01T15:26:35.336Z,98585.63
2023-02-01T15:31:48.387Z,98586.47
2023-02-01T15:37:02.627Z,98586.13
2023-02-01T15:42:20.976Z,98591.13
2023-02-01T15:47:29.865Z,98588.00
2023-02-01T15:52:43.388Z,98586.41
2023-02-01T15:57:46.371Z,98590.34
2023-02-01T16:03:49.440Z,98599.66
2023-02-01T16:09:00.001Z,98601.16
2023-02-01T16:14:02.798Z,98603.88
2023-02-01T16:19:05.568Z,98609.72
2023-02-01T16:24:08.481Z,98617.38
2023-02-01T16:29:11.386Z,98612.41
2023-02-01T16:34:18.124Z,98619.75
2023-02-01T16:39:23.907Z,98622.06
2023-02-01T16:44:26.554Z,98631.72
2023-02-01T16:49:29.007Z,98624.31
2023-02-01T16:54:31.485Z,98620.81
2023-02-01T16:59:34.105Z,98625.03
2023-02-01T17:04:37.084Z,98623.94
2023-02-01T17:09:40.582Z,98620.34
2023-02-01T17:14:43.044Z,98615.00
2023-02-01T17:19:53.113Z,98628.94
2023-02-01T17:24:55.568Z,98636.28
2023-02-01T17:29:57.999Z,98636.63
2023-02-01T17:35:00.522Z,98637.38
2023-02-01T17:40:03.180Z,98634.78
2023-02-01T17:45:38.361Z,98618.13
2023-02-01T17:50:41.192Z,98636.63
2023-02-01T17:55:45.894Z,98635.50
2023-02-01T18:00:51.771Z,98631.28
2023-02-01T18:05:55.965Z,98623.13
2023-02-01T18:11:00.938Z,98624.19
2023-02-01T18:16:04.728Z,98629.25
2023-02-01T18:21:07.769Z,98637.72
2023-02-01T18:26:15.770Z,98654.34
2023-02-01T18:31:23.914Z,98643.53
2023-02-01T18:36:27.514Z,98642.75
2023-02-01T18:41:30.267Z,98651.28
2023-02-01T18:46:32.825Z,98645.13
2023-02-01T18:51:38.697Z,98650.50
2023-02-01T18:56:42.980Z,98637.38
2023-02-01T19:01:45.531Z,98644.38
2023-02-01T19:06:48.069Z,98628.84
2023-02-01T19:11:50.582Z,98629.25
2023-02-01T19:16:54.969Z,98628.19
2023-02-01T19:21:57.434Z,98617.31
2023-02-01T19:27:00.040Z,98594.09
2023-02-01T19:32:02.848Z,98584.78
2023-02-01T19:37:07.037Z,98588.59
2023-02-01T19:42:09.879Z,98584.00
2023-02-01T19:47:14.655Z,98569.00
2023-02-01T19:52:17.626Z,98585.56
2023-02-01T19:57:20.156Z,98581.69
2023-02-01T20:02:22.650Z,98606.50
2023-02-01T20:07:25.489Z,98624.22
2023-02-01T20:12:28.176Z,98615.78
2023-02-01T20:17:32.884Z,98631.88
2023-02-01T20:22:35.733Z,98654.34
2023-02-01T20:27:41.965Z,98648.50
2023-02-01T20:32:44.460Z,98646.63
2023-02-01T20:37:48.920Z,98649.28
2023-02-01T20:42:51.668Z,98653.59
2023-02-01T20:47:54.285Z,98664.09
2023-02-01T20:52:56.774Z,98663.72
2023-02-01T20:57:59.467Z,98672.91
2023-02-01T21:03:01.949Z,98665.97
2023-02-01T21:08:04.722Z,98662.06
2023-02-01T21:13:08.005Z,98660.16
2023-02-01T21:18:11.754Z,98664.44
2023-02-01T21:23:15.285Z,98657.53
2023-02-01T21:28:18.013Z,98652.84
2023-02-01T21:33:20.455Z,98655.16
2023-02-01T21:38:23.088Z,98651.72
2023-02-01T21:43:25.508Z,98646.69
2023-02-01T21:48:28.228Z,98652.06
2023-02-01T21:53:30.726Z,98656.72
2023-02-01T21:58:33.164Z,98646.75
2023-02-01T22:03:35.996Z,98650.59
2023-02-01T22:08:39.119Z,98645.97
2023-02-01T22:13:41.573Z,98640.56
2023-02-01T22:18:44.740Z,98647.44
2023-02-01T22:23:54.223Z,98661.28
2023-02-01T22:28:56.907Z,98668.22
2023-02-01T22:33:59.755Z,98657.34
2023-02-01T22:39:02.219Z,98650.44
2023-02-01T22:44:05.016Z,98663.16
2023-02-01T22:49:07.610Z,98654.66
2023-02-01T22:54:23.325Z,98648.81
2023-02-01T22:59:25.986Z,98644.91
2023-02-01T23:04:28.424Z,98636.84
2023-02-01T23:09:30.877Z,98642.56
2023-02-01T23:14:33.306Z,98642.94
2023-02-01T23:19:35.764Z,98646.41
2023-02-01T23:24:38.548Z,98637.91
2023-02-01T23:29:41.123Z,98630.22
2023-02-01T23:34:43.584Z,98626.75
2023-02-01T23:39:46.180Z,98614.41
2023-02-01T23:44:48.808Z,98621.00
2023-02-01T23:49:51.271Z,98622.56
